createdAt,value
2023-06-05T00:00:59.543Z,34.82
2023-06-05T00:03:28.178Z,34.81
2023-06-05T00:05:55.599Z,34.89
2023-06-05T00:08:22.944Z,34.71
2023-06-05T00:10:49.875Z,35.18
2023-06-05T00:13:17.332Z,35.25
2023-06-05T00:15:44.326Z,35.00
2023-06-05T00:18:11.347Z,35.42
2023-06-05T00:20:38.390Z,35.07
2023-06-05T00:23:05.405Z,35.33
2023-06-05T00:25:32.217Z,35.29
2023-06-05T00:27:59.005Z,35.27
2023-06-05T00:30:25.875Z,35.41
2023-06-05T00:32:52.844Z,35.20
2023-06-05T00:35:19.787Z,35.52
2023-06-05T00:37:47.996Z,35.55
2023-06-05T00:40:15.478Z,35.35
2023-06-05T00:42:42.285Z,35.38
2023-06-05T00:45:09.596Z,35.28
2023-06-05T00:47:37.185Z,35.59
2023-06-05T00:50:04.726Z,35.35
2023-06-05T00:52:33.739Z,35.27
2023-06-05T00:55:02.301Z,35.48
2023-06-05T00:57:29.479Z,35.71
2023-06-05T00:59:56.520Z,35.94
2023-06-05T01:02:23.563Z,35.63
2023-06-05T01:04:50.621Z,35.25
2023-06-05T01:07:18.904Z,35.61
2023-06-05T01:09:45.905Z,35.79
2023-06-05T01:12:18.514Z,36.11
2023-06-05T01:14:49.233Z,35.63
2023-06-05T01:17:20.277Z,36.09
2023-06-05T01:19:49.584Z,35.66
2023-06-05T01:22:17.131Z,36.20
2023-06-05T01:24:43.922Z,36.22
2023-06-05T01:27:19.733Z,36.06
2023-06-05T01:30:08.449Z,36.15
2023-06-05T01:33:03.455Z,36.07
2023-06-05T01:35:34.005Z,35.98
2023-06-05T01:38:03.703Z,36.15
2023-06-05T01:40:32.085Z,36.29
2023-06-05T01:43:01.255Z,35.89
2023-06-05T01:45:28.779Z,36.43
2023-06-05T01:47:58.017Z,36.44
2023-06-05T01:50:25.864Z,36.56
2023-06-05T01:52:53.439Z,36.98
2023-06-05T01:55:25.197Z,36.83
2023-06-05T01:57:52.505Z,36.70
2023-06-05T02:00:19.811Z,36.72
2023-06-05T02:02:48.662Z,36.94
2023-06-05T02:05:16.827Z,37.14
2023-06-05T02:07:54.352Z,37.12
2023-06-05T02:10:21.982Z,37.08
2023-06-05T02:12:49.673Z,37.18
2023-06-05T02:15:16.832Z,37.32
2023-06-05T02:17:54.096Z,37.16
2023-06-05T02:20:24.616Z,37.49
2023-06-05T02:22:53.101Z,37.51
2023-06-05T02:25:20.337Z,37.71
2023-06-05T02:27:48.994Z,37.83
2023-06-05T02:30:16.283Z,38.01
2023-06-05T02:32:44.912Z,38.05
2023-06-05T02:35:12.854Z,38.00
2023-06-05T02:37:44.583Z,37.80
2023-06-05T02:40:14.241Z,37.85
2023-06-05T02:42:41.706Z,37.67
2023-06-05T02:45:09.830Z,37.84
2023-06-05T02:47:37.385Z,37.86
2023-06-05T02:50:05.367Z,38.25
2023-06-05T02:52:36.736Z,38.19
2023-06-05T02:55:10.767Z,38.00
2023-06-05T02:57:42.419Z,38.19
2023-06-05T03:00:15.765Z,38.35
2023-06-05T03:02:43.285Z,38.30
2023-06-05T03:05:11.092Z,38.67
2023-06-05T03:07:38.096Z,38.46
2023-06-05T03:10:08.791Z,38.54
2023-06-05T03:12:35.635Z,38.64
2023-06-05T03:15:02.804Z,38.63
2023-06-05T03:17:31.702Z,38.42
2023-06-05T03:19:58.548Z,38.71
2023-06-05T03:22:26.274Z,38.77
2023-06-05T03:24:53.304Z,38.65
2023-06-05T03:27:20.349Z,38.85
2023-06-05T03:29:47.217Z,39.36
2023-06-05T03:32:13.990Z,39.15
2023-06-05T03:34:43.942Z,39.48
2023-06-05T03:37:11.055Z,39.66
2023-06-05T03:39:39.450Z,39.72
2023-06-05T03:42:10.156Z,39.30
2023-06-05T03:44:36.964Z,39.49
2023-06-05T03:47:04.738Z,39.91
2023-06-05T03:49:32.904Z,40.14
2023-06-05T03:52:04.659Z,40.00
2023-06-05T03:54:34.715Z,39.46
2023-06-05T03:57:01.919Z,39.92
2023-06-05T03:59:29.718Z,39.62
2023-06-05T04:02:00.960Z,39.12
2023-06-05T04:04:27.725Z,39.04
2023-06-05T04:06:57.730Z,39.83
2023-06-05T04:09:26.845Z,39.60
2023-06-05T04:11:54.771Z,39.20
2023-06-05T04:14:21.940Z,39.39
2023-06-05T04:16:49.356Z,39.54
2023-06-05T04:19:22.094Z,39.52
2023-06-05T04:21:53.205Z,39.79
2023-06-05T04:24:20.114Z,39.86
2023-06-05T04:26:48.685Z,39.65
2023-06-05T04:29:16.983Z,39.64
2023-06-05T04:31:48.380Z,39.50
2023-06-05T04:34:15.664Z,39.39
2023-06-05T04:36:42.538Z,39.48
2023-06-05T04:39:17.644Z,39.98
2023-06-05T04:41:47.857Z,39.64
2023-06-05T04:44:23.441Z,39.29
2023-06-05T04:46:50.630Z,39.54
2023-06-05T04:49:17.806Z,38.71
2023-06-05T04:51:45.299Z,39.49
2023-06-05T04:54:13.367Z,39.02
2023-06-05T04:56:41.008Z,39.00
2023-06-05T04:59:09.092Z,39.48
2023-06-05T05:01:36.426Z,38.91
2023-06-05T05:04:03.796Z,38.33
2023-06-05T05:06:32.111Z,37.73
2023-06-05T05:08:59.285Z,37.93
2023-06-05T05:11:27.330Z,36.98
2023-06-05T05:13:54.306Z,37.43
2023-06-05T05:16:22.072Z,37.57
2023-06-05T05:18:48.995Z,37.64
2023-06-05T05:21:16.816Z,37.57
2023-06-05T05:23:43.656Z,36.51
2023-06-05T05:26:11.475Z,36.66
2023-06-05T05:28:38.200Z,36.18
2023-06-05T05:31:05.808Z,36.12
2023-06-05T05:33:35.064Z,35.52
2023-06-05T05:36:03.576Z,34.79
2023-06-05T05:38:30.764Z,34.96
2023-06-05T05:40:57.574Z,34.92
2023-06-05T05:43:24.372Z,34.60
2023-06-05T05:45:51.287Z,33.65
2023-06-05T05:48:18.498Z,33.83
2023-06-05T05:50:45.554Z,33.91
2023-06-05T05:53:12.300Z,33.38
2023-06-05T05:55:39.535Z,33.20
2023-06-05T05:58:06.363Z,32.54
2023-06-05T06:00:33.227Z,32.08
2023-06-05T06:03:00.243Z,32.30
2023-06-05T06:05:27.222Z,32.42
2023-06-05T06:07:53.923Z,31.50
2023-06-05T06:10:21.001Z,30.96
2023-06-05T06:12:47.879Z,30.27
2023-06-05T06:15:15.261Z,30.38
2023-06-05T06:17:42.133Z,30.11
2023-06-05T06:20:12.457Z,29.99
2023-06-05T06:22:39.848Z,30.27
2023-06-05T06:25:08.197Z,29.67
2023-06-05T06:27:36.116Z,30.04
2023-06-05T06:30:03.749Z,29.49
2023-06-05T06:32:30.917Z,28.97
2023-06-05T06:34:58.259Z,29.57
2023-06-05T06:37:25.603Z,29.33
2023-06-05T06:39:52.406Z,29.61
2023-06-05T06:42:19.435Z,29.81
2023-06-05T06:44:56.961Z,29.30
2023-06-05T06:47:25.815Z,29.09
2023-06-05T06:49:52.981Z,28.33
2023-06-05T06:52:22.600Z,28.11
2023-06-05T06:54:51.516Z,28.42
2023-06-05T06:57:18.748Z,27.93
2023-06-05T06:59:46.727Z,27.55
2023-06-05T07:02:18.953Z,27.67
2023-06-05T07:04:45.922Z,28.31
2023-06-05T07:07:15.230Z,27.56
2023-06-05T07:09:43.594Z,25.84
2023-06-05T07:12:21.518Z,28.94
2023-06-05T07:14:48.360Z,27.37
2023-06-05T07:17:15.099Z,26.68
2023-06-05T07:19:41.974Z,27.47
2023-06-05T07:22:08.765Z,27.04
2023-06-05T07:24:36.647Z,27.20
2023-06-05T07:27:04.580Z,27.16
2023-06-05T07:29:31.530Z,27.17
2023-06-05T07:31:59.571Z,26.52
2023-06-05T07:34:29.369Z,27.21
2023-06-05T07:36:57.574Z,25.59
2023-06-05T07:39:24.526Z,26.39
2023-06-05T07:41:51.555Z,26.61
2023-06-05T07:44:19.988Z,26.63
2023-06-05T07:46:48.592Z,25.33
2023-06-05T07:49:16.971Z,25.35
2023-06-05T07:51:44.720Z,25.91
2023-06-05T07:54:12.857Z,25.11
2023-06-05T07:56:40.653Z,25.87
2023-06-05T07:59:08.425Z,25.86
2023-06-05T08:01:39.772Z,24.83
2023-06-05T08:04:08.793Z,25.08
2023-06-05T08:06:38.952Z,24.68
2023-06-05T08:09:07.245Z,25.11
2023-06-05T08:11:34.085Z,24.53
2023-06-05T08:14:00.891Z,24.96
2023-06-05T08:16:27.734Z,24.68
2023-06-05T08:18:54.527Z,24.25
2023-06-05T08:21:21.393Z,24.47
2023-06-05T08:23:48.124Z,23.86
2023-06-05T08:26:14.993Z,24.41
2023-06-05T08:28:42.732Z,24.74
2023-06-05T08:31:10.890Z,23.94
2023-06-05T08:33:39.015Z,23.52
2023-06-05T08:36:06.534Z,22.89
2023-06-05T08:38:34.658Z,23.94
2023-06-05T08:41:06.530Z,22.69
2023-06-05T08:43:33.401Z,21.62
2023-06-05T08:46:00.364Z,21.95
2023-06-05T08:48:27.335Z,21.91
2023-06-05T08:50:56.004Z,22.36
2023-06-05T08:53:26.682Z,22.44
2023-06-05T08:55:55.847Z,23.07
2023-06-05T08:58:23.165Z,22.04
2023-06-05T09:00:50.325Z,21.95
2023-06-05T09:03:19.589Z,21.66
2023-06-05T09:05:47.190Z,21.66
2023-06-05T09:08:15.697Z,21.39
2023-06-05T09:10:42.416Z,21.10
2023-06-05T09:13:10.588Z,20.35
2023-06-05T09:15:38.060Z,20.48
2023-06-05T09:18:09.803Z,20.90
2023-06-05T09:20:41.802Z,19.86
2023-06-05T09:23:28.245Z,19.92
2023-06-05T09:25:59.905Z,19.63
2023-06-05T09:28:27.508Z,19.16
2023-06-05T09:30:54.221Z,19.34
2023-06-05T09:33:21.096Z,19.16
2023-06-05T09:35:47.876Z,19.29
2023-06-05T09:38:30.951Z,18.67
2023-06-05T09:41:04.530Z,19.41
2023-06-05T09:43:31.611Z,18.41
2023-06-05T09:45:58.457Z,17.40
2023-06-05T09:48:26.741Z,17.80
2023-06-05T09:50:54.510Z,17.78
2023-06-05T09:53:22.615Z,17.33
2023-06-05T09:55:49.608Z,17.16
2023-06-05T09:58:18.734Z,16.93
2023-06-05T10:00:47.327Z,16.67
2023-06-05T10:03:18.757Z,16.71
2023-06-05T10:05:49.564Z,16.44
2023-06-05T10:08:17.447Z,16.53
2023-06-05T10:10:44.429Z,16.07
2023-06-05T10:13:12.642Z,16.25
2023-06-05T10:15:43.383Z,15.45
2023-06-05T10:18:10.949Z,15.96
2023-06-05T10:20:38.245Z,15.67
2023-06-05T10:23:06.526Z,15.82
2023-06-05T10:25:35.952Z,15.68
2023-06-05T10:28:32.132Z,15.75
2023-06-05T10:31:27.516Z,14.49
2023-06-05T10:34:31.911Z,14.56
2023-06-05T10:37:36.826Z,13.86
2023-06-05T10:40:05.947Z,15.17
2023-06-05T10:42:32.905Z,13.54
2023-06-05T10:45:00.638Z,14.13
2023-06-05T10:47:51.990Z,14.78
2023-06-05T10:50:19.071Z,14.83
2023-06-05T10:52:50.494Z,14.23
2023-06-05T10:55:18.295Z,14.26
2023-06-05T10:58:04.093Z,13.67
2023-06-05T11:00:34.351Z,13.15
2023-06-05T11:03:02.334Z,12.53
2023-06-05T11:05:30.583Z,13.44
2023-06-05T11:08:15.202Z,12.52
2023-06-05T11:11:04.892Z,12.64
2023-06-05T11:13:57.164Z,12.05
2023-06-05T11:16:31.679Z,12.34
2023-06-05T11:19:16.816Z,12.22
2023-06-05T11:22:03.966Z,13.13
2023-06-05T11:24:31.503Z,12.17
2023-06-05T11:26:58.240Z,11.98
2023-06-05T11:29:26.926Z,12.32
2023-06-05T11:31:54.737Z,10.97
2023-06-05T11:34:21.981Z,10.72
2023-06-05T11:36:51.795Z,12.01
2023-06-05T11:39:20.264Z,11.40
2023-06-05T11:41:49.230Z,11.85
2023-06-05T11:44:16.415Z,11.58
2023-06-05T11:46:44.685Z,11.52
2023-06-05T11:49:28.240Z,12.18
2023-06-05T11:51:56.032Z,10.52
2023-06-05T11:54:35.210Z,12.20
2023-06-05T11:57:13.215Z,12.09
2023-06-05T11:59:40.242Z,12.14
2023-06-05T12:02:07.877Z,11.84
2023-06-05T12:04:35.790Z,12.34
2023-06-05T12:07:03.849Z,13.22
2023-06-05T12:09:31.052Z,13.77
2023-06-05T12:12:08.160Z,15.23
2023-06-05T12:14:35.775Z,15.96
2023-06-05T12:17:10.903Z,17.57
2023-06-05T12:19:38.140Z,16.87
2023-06-05T12:22:06.694Z,16.14
2023-06-05T12:24:34.869Z,17.05
2023-06-05T12:27:05.043Z,16.47
2023-06-05T12:29:34.156Z,17.54
2023-06-05T12:32:03.366Z,17.14
2023-06-05T12:34:58.157Z,17.84
2023-06-05T12:37:45.607Z,17.12
2023-06-05T12:40:14.937Z,17.67
2023-06-05T12:42:46.686Z,17.26
2023-06-05T12:45:13.859Z,18.15
2023-06-05T12:47:41.923Z,18.90
2023-06-05T12:50:13.205Z,18.61
2023-06-05T12:52:42.141Z,18.93
2023-06-05T12:55:09.858Z,18.08
2023-06-05T12:57:36.655Z,18.48
2023-06-05T13:00:15.121Z,18.81
2023-06-05T13:02:46.282Z,17.67
2023-06-05T13:05:13.533Z,18.87
2023-06-05T13:07:40.885Z,19.09
2023-06-05T13:10:08.716Z,19.23
2023-06-05T13:12:35.626Z,19.24
2023-06-05T13:15:03.667Z,19.37
2023-06-05T13:17:34.446Z,18.96
2023-06-05T13:20:01.466Z,19.40
2023-06-05T13:22:28.434Z,19.25
2023-06-05T13:24:55.391Z,19.52
2023-06-05T13:27:22.297Z,19.13
2023-06-05T13:29:49.396Z,19.07
2023-06-05T13:32:16.581Z,18.76
2023-06-05T13:34:43.359Z,19.20
2023-06-05T13:37:14.467Z,19.26
2023-06-05T13:39:41.685Z,18.74
2023-06-05T13:42:09.671Z,19.80
2023-06-05T13:44:36.475Z,18.83
2023-06-05T13:47:04.397Z,18.67
2023-06-05T13:49:32.305Z,18.72
2023-06-05T13:51:59.153Z,19.77
2023-06-05T13:54:25.974Z,20.02
2023-06-05T13:56:52.835Z,20.03
2023-06-05T13:59:19.773Z,20.25
2023-06-05T14:01:46.583Z,19.94
2023-06-05T14:04:13.439Z,19.60
2023-06-05T14:06:42.794Z,19.92
2023-06-05T14:09:09.843Z,19.78
2023-06-05T14:11:37.860Z,19.15
2023-06-05T14:14:04.830Z,19.43
2023-06-05T14:16:32.154Z,19.83
2023-06-05T14:18:58.978Z,19.64
2023-06-05T14:21:26.263Z,19.59
2023-06-05T14:23:53.067Z,19.88
2023-06-05T14:26:19.768Z,20.31
2023-06-05T14:28:46.459Z,19.85
2023-06-05T14:31:14.016Z,19.43
2023-06-05T14:33:41.221Z,20.43
2023-06-05T14:36:08.366Z,19.90
2023-06-05T14:38:35.508Z,19.23
2023-06-05T14:41:02.279Z,19.52
2023-06-05T14:43:29.068Z,19.02
2023-06-05T14:45:55.902Z,19.15
2023-06-05T14:48:22.651Z,19.10
2023-06-05T14:50:50.720Z,19.16
2023-06-05T14:53:17.509Z,19.81
2023-06-05T14:55:44.248Z,19.85
2023-06-05T14:58:11.719Z,20.04
2023-06-05T15:00:39.240Z,20.78
2023-06-05T15:03:06.365Z,20.88
2023-06-05T15:05:33.625Z,20.51
2023-06-05T15:08:00.537Z,20.43
2023-06-05T15:10:28.021Z,21.00
2023-06-05T15:12:58.665Z,20.73
2023-06-05T15:15:26.391Z,21.83
2023-06-05T15:17:56.175Z,22.14
2023-06-05T15:20:24.571Z,22.14
2023-06-05T15:23:11.444Z,20.84
2023-06-05T15:25:41.464Z,21.21
2023-06-05T15:28:08.243Z,21.74
2023-06-05T15:30:34.990Z,21.81
2023-06-05T15:33:01.852Z,21.28
2023-06-05T15:35:28.776Z,21.60
2023-06-05T15:37:56.207Z,21.98
2023-06-05T15:40:22.931Z,21.94
2023-06-05T15:43:06.501Z,22.28
2023-06-05T15:45:33.802Z,21.93
2023-06-05T15:48:00.924Z,22.74
2023-06-05T15:50:27.833Z,23.04
2023-06-05T15:52:54.766Z,22.79
2023-06-05T15:55:21.660Z,22.38
2023-06-05T15:57:49.471Z,22.64
2023-06-05T16:00:18.375Z,22.92
2023-06-05T16:02:45.884Z,21.60
2023-06-05T16:05:13.212Z,21.50
2023-06-05T16:07:40.588Z,21.05
2023-06-05T16:10:07.794Z,21.48
2023-06-05T16:12:34.712Z,21.54
2023-06-05T16:15:01.776Z,21.73
2023-06-05T16:17:29.001Z,21.98
2023-06-05T16:19:58.330Z,22.26
2023-06-05T16:22:25.677Z,22.06
2023-06-05T16:24:52.966Z,22.35
2023-06-05T16:27:20.715Z,22.93
2023-06-05T16:29:47.563Z,22.32
2023-06-05T16:32:14.602Z,21.79
2023-06-05T16:34:41.905Z,22.56
2023-06-05T16:37:09.053Z,22.11
2023-06-05T16:39:36.235Z,21.99
2023-06-05T16:42:03.922Z,21.81
2023-06-05T16:44:31.117Z,21.82
2023-06-05T16:46:57.998Z,22.53
2023-06-05T16:49:24.820Z,22.31
2023-06-05T16:51:51.673Z,22.45
2023-06-05T16:54:18.780Z,22.94
2023-06-05T16:56:45.512Z,22.61
2023-06-05T16:59:13.436Z,22.60
2023-06-05T17:01:40.305Z,22.46
2023-06-05T17:04:08.890Z,22.41
2023-06-05T17:06:36.696Z,22.12
2023-06-05T17:09:04.545Z,22.61
2023-06-05T17:11:32.102Z,22.47
2023-06-05T17:13:59.407Z,22.88
2023-06-05T17:16:26.287Z,22.95
2023-06-05T17:18:53.096Z,22.16
2023-06-05T17:21:20.363Z,22.21
2023-06-05T17:23:48.909Z,21.99
2023-06-05T17:26:16.454Z,21.89
2023-06-05T17:28:43.301Z,22.12
2023-06-05T17:31:10.511Z,22.33
2023-06-05T17:33:37.504Z,22.95
2023-06-05T17:36:04.474Z,21.98
2023-06-05T17:38:31.471Z,22.65
2023-06-05T17:40:58.375Z,22.30
2023-06-05T17:43:25.181Z,22.43
2023-06-05T17:45:51.996Z,22.54
2023-06-05T17:48:18.897Z,21.75
2023-06-05T17:50:46.073Z,22.15
2023-06-05T17:53:13.025Z,21.84
2023-06-05T17:55:39.954Z,22.85
2023-06-05T17:58:06.698Z,22.37
2023-06-05T18:00:33.731Z,22.76
2023-06-05T18:03:00.907Z,22.77
2023-06-05T18:05:27.829Z,22.58
2023-06-05T18:07:54.595Z,22.94
2023-06-05T18:10:21.948Z,23.22
2023-06-05T18:12:48.740Z,22.90
2023-06-05T18:15:15.703Z,22.90
2023-06-05T18:17:42.451Z,22.71
2023-06-05T18:20:09.803Z,23.24
2023-06-05T18:22:36.657Z,23.39
2023-06-05T18:25:04.063Z,23.48
2023-06-05T18:27:31.166Z,23.95
2023-06-05T18:29:57.989Z,24.10
2023-06-05T18:32:25.044Z,24.07
2023-06-05T18:34:51.886Z,23.87
2023-06-05T18:37:18.681Z,24.28
2023-06-05T18:39:45.863Z,24.21
2023-06-05T18:42:12.710Z,24.49
2023-06-05T18:44:39.492Z,24.39
2023-06-05T18:47:09.014Z,24.78
2023-06-05T18:49:36.433Z,24.77
2023-06-05T18:52:03.337Z,24.99
2023-06-05T18:54:30.111Z,24.98
2023-06-05T18:56:57.060Z,25.37
2023-06-05T18:59:23.796Z,24.96
2023-06-05T19:01:50.683Z,24.66
2023-06-05T19:04:17.622Z,24.53
2023-06-05T19:06:44.474Z,24.69
2023-06-05T19:09:11.440Z,24.98
2023-06-05T19:11:40.838Z,25.07
2023-06-05T19:14:07.630Z,25.52
2023-06-05T19:16:34.968Z,25.65
2023-06-05T19:19:01.874Z,25.58
2023-06-05T19:21:28.593Z,25.20
2023-06-05T19:23:55.404Z,25.52
2023-06-05T19:26:22.725Z,25.59
2023-06-05T19:28:49.490Z,25.59
2023-06-05T19:31:16.609Z,25.40
2023-06-05T19:33:43.541Z,25.10
2023-06-05T19:36:10.440Z,25.01
2023-06-05T19:38:37.272Z,25.27
2023-06-05T19:41:05.027Z,25.25
2023-06-05T19:43:32.088Z,25.32
2023-06-05T19:45:58.863Z,25.66
2023-06-05T19:48:25.608Z,25.63
2023-06-05T19:50:52.467Z,25.59
2023-06-05T19:53:19.343Z,25.95
2023-06-05T19:55:46.177Z,27.10
2023-06-05T19:58:13.021Z,27.56
2023-06-05T20:00:39.857Z,28.08
2023-06-05T20:03:06.746Z,28.14
2023-06-05T20:05:33.742Z,28.31
2023-06-05T20:08:00.582Z,28.89
2023-06-05T20:10:27.404Z,29.29
2023-06-05T20:12:54.152Z,29.46
2023-06-05T20:15:21.196Z,29.54
2023-06-05T20:17:48.077Z,29.30
2023-06-05T20:20:15.317Z,30.17
2023-06-05T20:22:42.136Z,30.21
2023-06-05T20:25:09.704Z,30.25
2023-06-05T20:27:38.346Z,30.51
2023-06-05T20:30:06.922Z,30.72
2023-06-05T20:32:33.800Z,30.92
2023-06-05T20:35:00.583Z,30.83
2023-06-05T20:37:31.246Z,30.54
2023-06-05T20:39:59.731Z,30.76
2023-06-05T20:42:28.464Z,30.67
2023-06-05T20:44:58.656Z,30.62
2023-06-05T20:47:26.539Z,30.81
2023-06-05T20:49:58.768Z,31.51
2023-06-05T20:52:25.832Z,30.96
2023-06-05T20:54:52.662Z,31.28
2023-06-05T20:57:21.318Z,31.81
2023-06-05T20:59:51.606Z,31.18
2023-06-05T21:02:18.474Z,31.23
2023-06-05T21:04:46.212Z,31.10
2023-06-05T21:07:13.033Z,31.19
2023-06-05T21:09:40.887Z,31.12
2023-06-05T21:12:08.512Z,30.96
2023-06-05T21:14:38.685Z,31.27
2023-06-05T21:17:07.285Z,31.64
2023-06-05T21:19:34.225Z,31.53
2023-06-05T21:22:02.607Z,30.93
2023-06-05T21:24:29.321Z,30.86
2023-06-05T21:26:57.017Z,31.99
2023-06-05T21:29:24.094Z,32.11
2023-06-05T21:31:51.169Z,31.12
2023-06-05T21:34:18.743Z,31.92
2023-06-05T21:36:46.208Z,31.79
2023-06-05T21:39:16.742Z,31.35
2023-06-05T21:41:44.472Z,31.84
2023-06-05T21:44:11.448Z,32.25
2023-06-05T21:46:38.344Z,31.96
2023-06-05T21:49:05.661Z,31.47
2023-06-05T21:51:34.523Z,31.56
2023-06-05T21:54:01.995Z,31.13
2023-06-05T21:56:28.795Z,31.24
2023-06-05T21:58:55.788Z,31.95
2023-06-05T22:01:22.695Z,31.45
2023-06-05T22:03:50.209Z,31.27
2023-06-05T22:06:20.098Z,31.22
2023-06-05T22:08:47.384Z,31.40
2023-06-05T22:11:14.888Z,30.92
2023-06-05T22:13:43.114Z,31.05
2023-06-05T22:16:10.272Z,31.15
2023-06-05T22:18:42.310Z,30.94
2023-06-05T22:21:13.802Z,31.54
2023-06-05T22:23:43.156Z,32.25
2023-06-05T22:26:09.971Z,32.48
2023-06-05T22:28:36.854Z,32.69
2023-06-05T22:31:03.850Z,32.71
2023-06-05T22:33:33.707Z,32.93
2023-06-05T22:36:02.054Z,33.40
2023-06-05T22:38:31.942Z,33.42
2023-06-05T22:40:58.686Z,33.82
2023-06-05T22:43:25.484Z,34.08
2023-06-05T22:45:52.290Z,33.76
2023-06-05T22:48:20.621Z,33.53
2023-06-05T22:50:54.336Z,33.67
2023-06-05T22:53:22.119Z,34.01
2023-06-05T22:55:48.932Z,34.02
2023-06-05T22:58:15.681Z,34.62
2023-06-05T23:00:43.496Z,34.81
2023-06-05T23:03:11.159Z,34.77
2023-06-05T23:05:38.053Z,34.85
2023-06-05T23:08:04.879Z,34.99
2023-06-05T23:10:31.729Z,35.18
2023-06-05T23:12:58.437Z,35.46
2023-06-05T23:15:28.005Z,35.77
2023-06-05T23:17:55.077Z,35.74
2023-06-05T23:20:21.913Z,35.46
2023-06-05T23:22:48.701Z,35.94
2023-06-05T23:25:17.671Z,36.21
2023-06-05T23:27:44.449Z,36.45
2023-06-05T23:30:11.733Z,36.27
2023-06-05T23:32:38.652Z,36.53
2023-06-05T23:35:05.644Z,36.63
2023-06-05T23:37:32.504Z,36.94
2023-06-05T23:39:59.247Z,36.45
2023-06-05T23:42:27.268Z,35.70
2023-06-05T23:44:54.070Z,35.28
2023-06-05T23:47:21.669Z,35.56
2023-06-05T23:49:48.844Z,35.82
2023-06-05T23:52:15.719Z,35.83
2023-06-05T23:54:42.477Z,35.49
2023-06-05T23:57:09.244Z,37.44
2023-06-05T23:59:36.055Z,37.29
